Flight Track Log - Related Links

Times and Time Zones

All times are in EDT time to prevent confusion due to time zone crossing. See the DAL6201 flight status page for this flight to view local times or setup timezone preferences in your user account.

Time Position Orientation Groundspeed Altitude Reporting Facility
EDT Latitude Longitude Course Direction KTS MPH feet Rate Location/Type
Thu 07:37:10 AM 42.9500 -87.9000 168° South 135 155 1,300  Level KMKE
Thu 07:38:43 AM 42.9028 -87.8858 168° South 217 250 5,200 2,221 Climbing Chicago Center
Thu 07:39:44 AM 42.8669 -87.8281 130° Southeast 235 270 7,000 2,000 Climbing Chicago Center
Thu 07:40:46 AM 42.8792 -87.7189 81° East 289 333 9,300 2,488 Climbing Chicago Center
Thu 07:41:47 AM 42.8831 -87.6019 87° East 306 352 12,100 2,049 Climbing Chicago Center
Thu 07:42:49 AM 42.8897 -87.4742 86° East 334 384 13,500 1,415 Climbing Chicago Center
Thu 07:43:50 AM 42.8944 -87.3403 87° East 375 432 15,000 2,016 Climbing Chicago Center
Thu 07:44:51 AM 42.8972 -87.1536 89° East 410 472 17,600 2,293 Climbing Chicago Center
Thu 07:45:53 AM 42.8994 -86.9972 89° East 414 476 19,700 1,854 Climbing Chicago Center
Thu 07:46:54 AM 42.9036 -86.8381 88° East 418 481 21,400 1,268 Climbing Chicago Center
Thu 07:47:56 AM 42.9064 -86.6678 89° East 449 517 22,300 976 Climbing Chicago Center
Thu 07:48:57 AM 42.9247 -86.4894 82° East 474 545 23,400 1,082 Climbing Chicago Center
Thu 07:49:58 AM 42.9442 -86.3050 82° East 488 562 24,500 1,268 Climbing Chicago Center
Thu 07:51:00 AM 42.9619 -86.1214 82° East 495 570 26,000 1,561 Climbing Chicago Center
Thu 07:52:01 AM 42.9833 -85.9061 82° East 499 574 27,700 1,426 Climbing Chicago Center
Thu 07:53:02 AM 43.0019 -85.7247 82° East 499 574 28,900 1,073 Climbing Chicago Center
Thu 07:54:04 AM 43.0208 -85.5383 82° East 498 573 29,900 976 Climbing Chicago Center
Thu 07:55:05 AM 43.0381 -85.3481 83° East 503 579 30,900 984 Climbing Chicago Center
Thu 07:56:06 AM 43.0564 -85.1572 82° East 504 580 31,900 976 Climbing Chicago Center
Thu 07:57:08 AM 43.0736 -84.9653 83° East 507 583 32,900 1,019 Climbing Chicago Center
Thu 07:57:52 AM 43.0872 -84.8100 83° East 512 589 33,700 1,019 Climbing Cleveland Center
Thu 07:58:54 AM 43.1042 -84.6161 83° East 514 592 34,700 629 Climbing Cleveland Center
Thu 07:59:56 AM 43.1086 -84.4208 88° East 514 592 35,000 532 Climbing Cleveland Center
Thu 08:00:58 AM 43.1056 -84.1806 91° East 524 603 35,800 677 Climbing Cleveland Center
Thu 08:02:00 AM 43.1031 -83.9769 91° East 530 610 36,400 585 Climbing Cleveland Center
Thu 08:03:01 AM 43.1008 -83.7706 91° East 534 615 37,000 293 Climbing Cleveland Center
Thu 08:04:03 AM 43.0978 -83.5619 91° East 546 628 37,000  Level Cleveland Center
Thu 08:05:05 AM 43.0953 -83.3517 91° East 547 629 37,000  Level Cleveland Center
Thu 08:06:07 AM 43.0922 -83.1439 91° East 547 629 37,000  Level Cleveland Center
Thu 08:07:10 AM 43.0889 -82.9392 91° East 542 624 37,000  Level Cleveland Center
Thu 08:08:11 AM 43.0828 -82.6933 92° East 538 619 37,000  Level Cleveland Center
Thu 08:08:41 AM 43.0833 -82.5833 90° East 540 621 37,000  Level Toronto Center
Thu 08:09:41 AM 43.0667 -82.4000 97° East 530 610 37,000  Level Toronto Center
Thu 08:10:41 AM 43.0500 -82.1667 96° East 530 610 37,000  Level Toronto Center
Thu 08:11:41 AM 43.0500 -81.9833 90° East 530 610 37,000  Level Toronto Center
Thu 08:12:41 AM 43.0500 -81.7833 90° East 530 610 37,000  Level Toronto Center
Thu 08:13:41 AM 43.0500 -81.5667 90° East 530 610 37,000  Level Toronto Center
Thu 08:14:41 AM 43.0333 -81.3833 97° East 530 610 37,000  Level Toronto Center
Thu 08:15:41 AM 43.0333 -81.1667 90° East 530 610 37,000  Level Toronto Center
Thu 08:16:41 AM 43.0167 -80.9833 97° East 530 610 37,000  Level Toronto Center
Thu 08:17:41 AM 43.0167 -80.7667 90° East 530 610 37,000  Level Toronto Center
Thu 08:18:41 AM 43.0167 -80.5667 90° East 530 610 37,000  Level Toronto Center
Thu 08:19:41 AM 43.0000 -80.3667 96° East 540 621 37,000  Level Toronto Center
Thu 08:20:41 AM 43.0000 -80.1500 90° East 540 621 37,000  Level Toronto Center
Thu 08:21:41 AM 42.9833 -79.9500 96° East 540 621 37,000  Level Toronto Center
Thu 08:22:41 AM 42.9833 -79.7500 90° East 540 621 37,000  Level Toronto Center
Thu 08:23:41 AM 42.9667 -79.5500 96° East 540 621 37,000  Level Toronto Center
Thu 08:24:41 AM 42.9500 -79.3333 96° East 540 621 37,000  Level Toronto Center
Thu 08:25:41 AM 42.9500 -79.1500 90° East 530 610 37,000  Level Toronto Center
Thu 08:26:41 AM 42.9333 -78.9500 96° East 540 621 37,000  Level Toronto Center
Thu 08:27:41 AM 42.9333 -78.7500 90° East 550 633 37,000  Level Toronto Center
Thu 08:28:41 AM 42.9167 -78.5167 95° East 550 633 37,000  Level Toronto Center
Thu 08:29:41 AM 42.8667 -78.3167 109° East 550 633 37,000  Level Toronto Center
Thu 08:30:41 AM 42.8500 -78.1167 96° East 540 621 37,000  Level Toronto Center
Thu 08:31:41 AM 42.8333 -77.9333 97° East 540 621 37,000  Level Toronto Center
Thu 08:32:41 AM 42.8000 -77.7000 101° East 540 621 37,000  Level Toronto Center
Thu 08:33:12 AM 42.8042 -77.6578 82° East 525 604 37,000  Level Cleveland Center
Thu 08:34:14 AM 42.7775 -77.4536 100° East 534 615 37,000  Level Cleveland Center
Thu 08:35:16 AM 42.7506 -77.2500 100° East 537 618 37,000  Level Cleveland Center
Thu 08:36:18 AM 42.7231 -77.0483 100° East 538 619 37,000  Level Cleveland Center
Thu 08:37:20 AM 42.6956 -76.8450 100° East 542 624 37,000  Level Cleveland Center
Thu 08:38:22 AM 42.6656 -76.6281 101° East 547 629 37,000  Level Cleveland Center
Thu 08:39:24 AM 42.6333 -76.3986 101° East 547 629 37,000 -290 Level Cleveland Center
Thu 08:40:26 AM 42.6031 -76.1825 101° East 549 632 36,400 -774 Descending Cleveland Center
Thu 08:41:28 AM 42.5736 -75.9781 101° East 551 634 35,400 -976 Descending Cleveland Center
Thu 08:42:29 AM 42.5453 -75.7750 101° East 552 635 34,400 -1,024 Descending Cleveland Center
Thu 08:43:31 AM 42.5064 -75.5797 105° East 544 626 33,300 -1,645 Descending Cleveland Center
Thu 08:44:33 AM 42.4494 -75.3906 112° Southeast 544 626 31,000 -2,226 Descending Cleveland Center
Thu 08:45:35 AM 42.3944 -75.2086 112° Southeast 533 613 28,700 -2,468 Descending Cleveland Center
Thu 08:46:37 AM 42.3317 -74.9969 112° Southeast 510 587 25,900 -2,318 Descending Cleveland Center
Thu 08:47:47 AM 42.2792 -74.8203 112° Southeast 508 585 23,600 -2,123 Descending Boston Center
Thu 08:48:47 AM 42.2253 -74.6481 113° Southeast 503 579 21,300 -2,350 Descending Boston Center
Thu 08:49:47 AM 42.1647 -74.4492 112° Southeast 480 552 18,900 -1,636 Descending Boston Center
Thu 08:50:48 AM 42.1056 -74.3189 121° Southeast 426 490 18,000 -443 Descending Boston Center
Thu 08:51:49 AM 42.0042 -74.2481 153° Southeast 414 476 18,000  Level Boston Center
Thu 08:52:52 AM 41.8928 -74.1719 153° Southeast 418 481 18,000 -244 Level Boston Center
Thu 08:53:52 AM 41.7889 -74.1003 153° Southeast 420 483 17,500 -1,091 Descending Boston Center
Thu 08:54:53 AM 41.6881 -74.0311 153° Southeast 409 471 15,800 -1,967 Descending Boston Center
Thu 08:55:54 AM 41.5922 -73.9667 153° Southeast 385 443 13,500 -2,195 Descending Boston Center
Thu 08:56:56 AM 41.5011 -73.9056 153° Southeast 364 419 11,300 -1,721 Descending Boston Center
Thu 08:57:56 AM 41.4181 -73.8503 153° Southeast 331 381 10,000 -1,355 Descending Boston Center
Thu 08:59:00 AM 41.3333 -73.7833 149° Southeast 312 359 8,500 -1,355 Descending New York TRACON
Thu 09:00:00 AM 41.2667 -73.7167 143° Southeast 299 344 7,200 -1,300 Descending New York TRACON
Thu 09:01:00 AM 41.1833 -73.6833 163° South 275 316 5,900 -1,300 Descending New York TRACON
Thu 09:02:00 AM 41.1167 -73.6500 159° South 271 312 4,600 -950 Descending New York TRACON
Thu 09:03:00 AM 41.0500 -73.6333 169° South 271 312 4,000 -300 Descending New York TRACON
Thu 09:04:00 AM 40.9667 -73.6333 180° South 266 306 4,000  Level New York TRACON
Thu 09:05:00 AM 40.9000 -73.6667 201° Southwest 263 303 4,000  Level New York TRACON
Thu 09:05:54 AM 40.8500 -73.6833 194° South 229 264 4,000  Level New York TRACON
Thu 09:07:00 AM 40.7833 -73.7167 201° Southwest 214 246 4,000  Level New York TRACON
Thu 09:08:00 AM 40.7833 -73.8000 270° West 206 237 4,000  Level New York TRACON
Thu 09:08:54 AM 40.7833 -73.8667 270° West 208 239 4,000 -200 Level New York TRACON
Thu 09:10:00 AM 40.7667 -73.9500 255° West 194 223 3,600 -500 Descending New York TRACON
Thu 09:10:54 AM 40.7333 -73.9667 201° Southwest 203 234 3,000 -700 Descending New York TRACON
Thu 09:12:00 AM 40.7167 -73.9000 108° East 166 191 2,200 -857 Descending New York TRACON
Thu 09:13:00 AM 40.7333 -73.8500 66° East 129 148 1,200 -800 Descending New York TRACON
Thu 09:14:00 AM 40.7667 -73.8333 21° North 141 162 600 -600 Descending New York TRACON

Login

Don't have an account? Register now (free) for customized features, flight alerts, and more!